Time;durP1;ratioP1;P1;durP2;ratioP2;P2;SDS_P1;SDS_P2;PMS_P1;PMS_P2;Temp;Humidity;BMP_temperature;BMP_pressure;BME280_temperature;BME280_humidity;BME280_pressure;Samples;Min_cycle;Max_cycle;Signal;HPM_P1;HPM_P2
2023/06/29 00:01:04;;;;;;;9.50;7.22;;;17.20;99.90;;;;;;5023359;28;20100;-42
2023/06/29 00:03:31;;;;;;;8.32;7.53;;;17.10;99.90;;;;;;5015218;28;20046;-40
2023/06/29 00:06:01;;;;;;;10.73;7.88;;;17.10;99.90;;;;;;5009595;28;20046;-40
2023/06/29 00:08:35;;;;;;;8.25;7.43;;;17.00;99.90;;;;;;5006124;28;20065;-39
2023/06/29 00:11:04;;;;;;;8.32;7.47;;;17.00;99.90;;;;;;5018432;28;20514;-43
2023/06/29 00:13:31;;;;;;;10.75;7.70;;;16.90;99.90;;;;;;5010535;28;20046;-41
2023/06/29 00:16:00;;;;;;;9.68;7.65;;;16.90;99.90;;;;;;5013288;28;20419;-41
2023/06/29 00:18:32;;;;;;;8.48;7.68;;;16.90;99.90;;;;;;5009034;28;20038;-40
2023/06/29 00:21:01;;;;;;;8.13;7.32;;;16.90;99.90;;;;;;5015982;28;20072;-43
2023/06/29 00:23:28;;;;;;;9.43;7.78;;;16.80;99.90;;;;;;5007969;28;20100;-40
2023/06/29 00:25:56;;;;;;;7.70;7.00;;;16.80;99.90;;;;;;5003800;28;20162;-41
2023/06/29 00:28:24;;;;;;;9.18;7.43;;;16.70;99.90;;;;;;5013438;28;20042;-41
2023/06/29 00:30:51;;;;;;;8.00;7.20;;;16.70;99.90;;;;;;4989627;28;20077;-40
2023/06/29 00:33:18;;;;;;;8.32;7.53;;;16.70;99.90;;;;;;5016477;28;20378;-40
2023/06/29 00:35:46;;;;;;;8.48;7.55;;;16.70;99.90;;;;;;5008931;28;20044;-40
2023/06/29 00:38:13;;;;;;;10.93;7.63;;;16.60;99.90;;;;;;5016101;28;20458;-43
2023/06/29 00:40:40;;;;;;;9.40;6.97;;;16.50;99.90;;;;;;5020280;28;20547;-40
2023/06/29 00:43:08;;;;;;;9.82;7.60;;;16.50;99.90;;;;;;4994117;28;20041;-40
2023/06/29 00:45:36;;;;;;;8.18;7.35;;;16.50;99.90;;;;;;5017554;28;20100;-41
2023/06/29 00:48:04;;;;;;;8.52;7.57;;;16.50;99.90;;;;;;5022361;28;20057;-42
2023/06/29 00:50:34;;;;;;;7.88;7.07;;;16.50;99.90;;;;;;5015136;22;20066;-43
2023/06/29 00:53:02;;;;;;;10.77;7.78;;;16.40;99.90;;;;;;5001322;28;20404;-45
2023/06/29 00:55:30;;;;;;;9.52;7.78;;;16.40;99.90;;;;;;5000203;28;20080;-49
2023/06/29 00:57:58;;;;;;;8.95;7.50;;;16.40;99.90;;;;;;4999942;28;20077;-44
2023/06/29 01:00:25;;;;;;;9.02;7.80;;;16.30;99.90;;;;;;4986897;28;20076;-46
2023/06/29 01:02:52;;;;;;;8.75;7.05;;;16.30;99.90;;;;;;4981554;28;20423;-45
2023/06/29 01:05:20;;;;;;;11.35;7.90;;;16.20;99.90;;;;;;4968334;28;20093;-46
2023/06/29 01:08:21;;;;;;;8.85;7.95;;;16.20;99.90;;;;;;4987680;28;20047;-45
2023/06/29 01:10:49;;;;;;;9.93;8.43;;;16.20;99.90;;;;;;4980105;28;20058;-46
2023/06/29 01:13:18;;;;;;;10.70;7.93;;;16.10;99.90;;;;;;4979699;28;20043;-47
2023/06/29 01:15:46;;;;;;;10.18;7.68;;;16.10;99.90;;;;;;4976993;28;20496;-50
2023/06/29 01:18:16;;;;;;;8.25;7.38;;;16.10;99.90;;;;;;4989619;28;20511;-49
2023/06/29 01:20:48;;;;;;;8.55;7.47;;;16.00;99.90;;;;;;4981277;28;20051;-47
2023/06/29 01:23:22;;;;;;;;;;;16.00;99.90;;;;;;4974718;28;20092;-45
2023/06/29 01:25:54;;;;;;;8.68;7.53;;;16.00;99.90;;;;;;4989439;28;19976;-47
2023/06/29 01:28:26;;;;;;;8.45;7.53;;;16.00;99.90;;;;;;4982645;28;20100;-46
2023/06/29 01:30:53;;;;;;;9.70;7.25;;;15.90;99.90;;;;;;4972918;28;20047;-44
2023/06/29 01:33:23;;;;;;;9.32;7.90;;;15.80;99.90;;;;;;4991213;28;20165;-50
2023/06/29 01:36:00;;;;;;;9.20;7.43;;;15.80;99.90;;;;;;4988414;28;20042;-47
2023/06/29 01:38:42;;;;;;;8.85;7.95;;;15.80;99.90;;;;;;4981076;28;20136;-48
2023/06/29 01:41:14;;;;;;;9.90;7.55;;;15.80;99.90;;;;;;4990024;28;20046;-45
2023/06/29 01:43:43;;;;;;;9.43;7.57;;;15.80;99.90;;;;;;4991050;28;20416;-51
2023/06/29 01:46:14;;;;;;;9.95;8.95;;;15.70;99.90;;;;;;4970938;28;20042;-46
2023/06/29 01:48:42;;;;;;;8.65;7.82;;;15.70;99.90;;;;;;4961399;28;20065;-46
2023/06/29 01:51:13;;;;;;;9.48;7.35;;;15.70;99.90;;;;;;4963596;28;20046;-49
2023/06/29 01:53:40;;;;;;;8.90;8.00;;;15.60;99.90;;;;;;4979329;28;20058;-46
2023/06/29 01:56:08;;;;;;;9.80;7.72;;;15.60;99.90;;;;;;4989438;28;20043;-48
2023/06/29 01:58:35;;;;;;;11.57;8.50;;;15.60;99.90;;;;;;4965095;28;20053;-44
2023/06/29 02:01:02;;;;;;;9.65;7.65;;;15.60;99.90;;;;;;4956129;28;20069;-46
2023/06/29 02:03:30;;;;;;;8.90;7.97;;;15.60;99.90;;;;;;4972430;28;20389;-51
2023/06/29 02:05:57;;;;;;;11.95;8.35;;;15.60;99.90;;;;;;4971391;28;20039;-47
2023/06/29 02:08:24;;;;;;;10.13;8.27;;;15.60;99.90;;;;;;4984139;28;20053;-47
2023/06/29 02:10:52;;;;;;;10.75;8.10;;;15.50;99.90;;;;;;4979143;28;20058;-47
2023/06/29 02:13:19;;;;;;;10.50;8.25;;;15.50;99.90;;;;;;4986322;28;20504;-45
2023/06/29 02:15:47;;;;;;;11.40;8.35;;;15.50;99.90;;;;;;4965174;28;20067;-51
2023/06/29 02:18:15;;;;;;;9.43;7.35;;;15.40;99.90;;;;;;4987940;28;20069;-47
2023/06/29 02:20:42;;;;;;;9.20;7.53;;;15.40;99.90;;;;;;4990016;28;20156;-49
2023/06/29 02:23:10;;;;;;;8.60;7.45;;;15.30;99.90;;;;;;4973124;28;20247;-47
2023/06/29 02:25:37;;;;;;;8.52;7.30;;;15.20;99.90;;;;;;4979789;28;20077;-47
2023/06/29 02:28:04;;;;;;;8.38;7.35;;;15.20;99.90;;;;;;4982050;28;20116;-50
2023/06/29 02:30:32;;;;;;;8.57;7.63;;;15.20;99.90;;;;;;4982527;28;20466;-50
2023/06/29 02:32:59;;;;;;;8.02;7.22;;;15.20;99.90;;;;;;4968504;28;20042;-44
2023/06/29 02:35:27;;;;;;;8.63;7.00;;;15.20;99.90;;;;;;4975475;28;20046;-47
2023/06/29 02:37:54;;;;;;;8.35;7.00;;;15.10;99.90;;;;;;4989177;28;20343;-48
2023/06/29 02:40:22;;;;;;;7.35;6.65;;;15.10;99.90;;;;;;4964507;28;20089;-46
2023/06/29 02:42:49;;;;;;;8.48;6.97;;;15.10;99.90;;;;;;4971286;28;20507;-48
2023/06/29 02:45:16;;;;;;;8.85;7.53;;;15.00;99.90;;;;;;4989763;28;20038;-47
2023/06/29 02:47:44;;;;;;;9.10;7.35;;;15.00;99.90;;;;;;4968033;28;20054;-48
2023/06/29 02:50:11;;;;;;;9.13;6.90;;;14.90;99.90;;;;;;4989662;28;20567;-43
2023/06/29 02:52:44;;;;;;;7.90;7.10;;;14.90;99.90;;;;;;4963262;28;20117;-48
2023/06/29 02:55:12;;;;;;;8.60;7.50;;;14.90;99.90;;;;;;4959764;28;20042;-48
2023/06/29 02:57:39;;;;;;;7.65;6.85;;;14.90;99.90;;;;;;4989276;28;20153;-51
2023/06/29 03:00:08;;;;;;;8.50;6.80;;;14.90;99.90;;;;;;4971247;28;20031;-51
2023/06/29 03:02:37;;;;;;;7.50;6.80;;;14.90;99.90;;;;;;4984942;28;20546;-45
2023/06/29 03:05:05;;;;;;;8.30;7.28;;;14.90;99.90;;;;;;4985447;28;20074;-49
2023/06/29 03:07:32;;;;;;;8.95;7.82;;;14.80;99.90;;;;;;4973567;28;20564;-50
2023/06/29 03:10:01;;;;;;;9.50;7.20;;;14.80;99.90;;;;;;4970136;28;20425;-48
2023/06/29 03:12:30;;;;;;;8.20;7.35;;;14.80;99.90;;;;;;4972144;28;20046;-51
2023/06/29 03:14:58;;;;;;;8.60;7.00;;;14.80;99.90;;;;;;4983649;28;20120;-50
2023/06/29 03:17:27;;;;;;;8.95;7.22;;;14.80;99.90;;;;;;4983994;28;20125;-48
2023/06/29 03:19:54;;;;;;;9.73;7.30;;;14.80;99.90;;;;;;4974476;28;20051;-46
2023/06/29 03:22:24;;;;;;;8.05;7.25;;;14.80;99.90;;;;;;4980089;28;20049;-49
2023/06/29 03:24:51;;;;;;;9.70;7.28;;;14.80;99.90;;;;;;4976729;28;20047;-49
2023/06/29 03:27:21;;;;;;;7.30;6.60;;;14.80;99.90;;;;;;4978775;28;20039;-48
2023/06/29 03:29:51;;;;;;;7.38;6.68;;;14.80;99.90;;;;;;4985599;28;20053;-50
2023/06/29 03:32:18;;;;;;;7.85;7.13;;;14.90;99.90;;;;;;4981717;28;20462;-46
2023/06/29 03:34:45;;;;;;;8.05;7.25;;;14.90;99.90;;;;;;4979486;28;20078;-48
2023/06/29 03:37:13;;;;;;;9.65;7.13;;;14.90;99.90;;;;;;4982931;28;20046;-51
2023/06/29 03:39:40;;;;;;;7.57;6.88;;;14.90;99.90;;;;;;4986754;28;20046;-51
2023/06/29 03:42:07;;;;;;;7.43;6.72;;;15.00;99.90;;;;;;4987820;28;20039;-51
2023/06/29 03:44:36;;;;;;;8.38;7.22;;;15.00;99.90;;;;;;4980586;28;20070;-49
2023/06/29 03:47:03;;;;;;;8.00;7.20;;;15.10;99.90;;;;;;4978038;28;20101;-45
2023/06/29 03:49:31;;;;;;;10.02;7.00;;;15.10;99.90;;;;;;4988623;28;20054;-52
2023/06/29 03:51:58;;;;;;;8.05;6.82;;;15.10;99.90;;;;;;4975700;28;20416;-47
2023/06/29 03:54:27;;;;;;;7.90;7.10;;;15.20;99.90;;;;;;4962946;28;21226;-48
2023/06/29 03:56:55;;;;;;;7.72;6.93;;;15.20;99.90;;;;;;4977007;28;20078;-47
2023/06/29 03:59:22;;;;;;;10.30;7.00;;;15.30;99.90;;;;;;4976567;28;20130;-47
2023/06/29 04:01:49;;;;;;;9.02;6.93;;;15.30;99.90;;;;;;4977679;28;20042;-48
2023/06/29 04:04:17;;;;;;;10.23;7.38;;;15.30;99.90;;;;;;4983965;28;20098;-48
2023/06/29 04:06:44;;;;;;;9.57;6.82;;;15.40;99.90;;;;;;4968395;28;20051;-46
2023/06/29 04:09:11;;;;;;;9.82;7.70;;;15.40;99.90;;;;;;4980936;28;20109;-47
2023/06/29 04:11:39;;;;;;;8.60;7.70;;;15.50;99.90;;;;;;4988816;28;20514;-43
2023/06/29 04:14:06;;;;;;;7.88;7.07;;;15.50;99.90;;;;;;4988816;28;20070;-49
2023/06/29 04:16:34;;;;;;;12.48;7.97;;;15.50;99.90;;;;;;4977238;28;20725;-43
2023/06/29 04:19:01;;;;;;;8.57;7.78;;;15.60;99.90;;;;;;4985622;28;20352;-47
2023/06/29 04:21:28;;;;;;;12.02;8.48;;;15.60;99.90;;;;;;4972577;28;20125;-44
2023/06/29 04:23:56;;;;;;;9.55;8.65;;;15.70;99.90;;;;;;4983398;28;20058;-50
2023/06/29 04:26:27;;;;;;;8.98;7.95;;;15.70;99.90;;;;;;4991050;28;20048;-44
2023/06/29 04:29:03;;;;;;;8.45;7.63;;;15.70;99.90;;;;;;4992178;28;20050;-44
2023/06/29 04:31:30;;;;;;;8.38;7.47;;;15.80;99.90;;;;;;4981918;28;20046;-52
2023/06/29 04:33:58;;;;;;;9.25;7.78;;;15.90;99.90;;;;;;4984994;28;20042;-46
2023/06/29 04:36:25;;;;;;;9.63;7.40;;;15.90;99.90;;;;;;4973871;28;20150;-50
2023/06/29 04:38:53;;;;;;;8.48;7.53;;;16.00;99.90;;;;;;4973373;28;20049;-48
2023/06/29 04:41:30;;;;;;;8.40;7.32;;;16.00;99.90;;;;;;4989026;28;20097;-44
2023/06/29 04:43:58;;;;;;;8.05;7.25;;;16.10;99.90;;;;;;4990978;28;20057;-43
2023/06/29 04:46:30;;;;;;;9.95;7.78;;;16.10;99.90;;;;;;4988866;28;20050;-44
2023/06/29 04:49:06;;;;;;;10.25;7.40;;;16.20;99.90;;;;;;4977009;28;20062;-44
2023/06/29 04:51:35;;;;;;;8.90;8.05;;;16.20;99.90;;;;;;4979101;28;20094;-45
2023/06/29 04:54:07;;;;;;;8.90;8.00;;;16.30;99.90;;;;;;4978970;28;20050;-46
2023/06/29 04:56:35;;;;;;;8.80;7.90;;;16.40;99.90;;;;;;4986734;28;20188;-45
2023/06/29 04:59:02;;;;;;;10.10;7.70;;;16.40;99.90;;;;;;4987762;28;20380;-51
2023/06/29 05:01:30;;;;;;;11.23;8.55;;;16.50;99.90;;;;;;4959423;28;20168;-49
2023/06/29 05:03:57;;;;;;;11.52;8.73;;;16.60;99.90;;;;;;4980639;28;20051;-52
2023/06/29 05:06:28;;;;;;;9.55;8.55;;;16.60;99.90;;;;;;4989169;28;20042;-49
2023/06/29 05:08:55;;;;;;;8.73;7.70;;;16.70;99.90;;;;;;4979149;28;20428;-47
2023/06/29 05:11:23;;;;;;;9.38;8.13;;;16.80;99.90;;;;;;4982867;28;20217;-43
2023/06/29 05:13:50;;;;;;;12.85;8.80;;;16.90;99.90;;;;;;4985957;28;20444;-45
2023/06/29 05:16:17;;;;;;;9.27;8.38;;;17.00;99.90;;;;;;4975818;28;20066;-44
2023/06/29 05:18:45;;;;;;;9.05;8.15;;;17.00;99.90;;;;;;4985468;28;20564;-42
2023/06/29 05:21:14;;;;;;;9.82;8.50;;;17.10;99.90;;;;;;4985894;28;20069;-46
2023/06/29 05:23:41;;;;;;;11.63;8.75;;;17.20;99.90;;;;;;4988059;28;20141;-45
2023/06/29 05:26:08;;;;;;;9.88;8.75;;;17.30;99.90;;;;;;4982698;28;20042;-45
2023/06/29 05:28:36;;;;;;;10.43;8.98;;;17.40;99.90;;;;;;4983517;28;20054;-45
2023/06/29 05:31:03;;;;;;;12.27;8.50;;;17.50;99.90;;;;;;4979823;28;20045;-49
2023/06/29 05:33:30;;;;;;;10.85;8.20;;;17.60;99.90;;;;;;4978430;28;20181;-44
2023/06/29 05:35:58;;;;;;;10.60;8.52;;;17.70;99.90;;;;;;4984705;28;20054;-46
2023/06/29 05:38:29;;;;;;;8.82;7.93;;;17.80;99.90;;;;;;4968261;28;20043;-47
2023/06/29 05:40:56;;;;;;;9.05;8.15;;;17.90;99.90;;;;;;4968064;28;20077;-50
2023/06/29 05:43:27;;;;;;;8.95;6.93;;;18.00;99.90;;;;;;4971050;28;20042;-50
2023/06/29 05:45:55;;;;;;;13.38;8.35;;;18.00;99.90;;;;;;4979801;28;20496;-48
2023/06/29 05:48:22;;;;;;;9.52;8.55;;;18.10;99.90;;;;;;4981978;28;20517;-45
2023/06/29 05:50:49;;;;;;;13.00;8.70;;;18.20;99.90;;;;;;4977237;28;20043;-50
2023/06/29 05:53:16;;;;;;;10.18;8.18;;;18.20;99.90;;;;;;4985049;28;20049;-44
2023/06/29 05:55:44;;;;;;;9.27;8.20;;;18.30;99.90;;;;;;4982078;28;20137;-44
2023/06/29 05:58:11;;;;;;;9.60;7.70;;;18.40;99.90;;;;;;4971304;28;20496;-51
2023/06/29 06:00:38;;;;;;;9.13;8.30;;;18.40;99.90;;;;;;4986291;28;20129;-41
2023/06/29 06:03:05;;;;;;;10.73;8.00;;;18.50;99.90;;;;;;4980861;28;20092;-43
2023/06/29 06:05:33;;;;;;;9.95;8.35;;;18.70;99.90;;;;;;4985600;28;20050;-43
2023/06/29 06:08:00;;;;;;;13.02;8.60;;;18.70;99.90;;;;;;4971294;28;20066;-43
2023/06/29 06:10:27;;;;;;;8.80;7.97;;;18.80;99.90;;;;;;4983935;28;20030;-45
2023/06/29 06:12:55;;;;;;;8.90;7.95;;;18.90;99.90;;;;;;4981664;28;20070;-43
2023/06/29 06:15:22;;;;;;;10.48;8.00;;;18.90;99.90;;;;;;4978456;28;20145;-42
2023/06/29 06:17:49;;;;;;;9.40;8.40;;;19.00;99.90;;;;;;4972180;28;20054;-42
2023/06/29 06:20:17;;;;;;;11.80;8.00;;;19.10;99.90;;;;;;4978074;28;20039;-38
2023/06/29 06:22:44;;;;;;;9.45;7.47;;;19.30;99.90;;;;;;4969819;28;20050;-43
2023/06/29 06:25:14;;;;;;;13.23;8.00;;;19.30;99.90;;;;;;4977123;28;20046;-42
2023/06/29 06:27:42;;;;;;;12.10;8.00;;;19.50;99.90;;;;;;4975939;28;20051;-47
2023/06/29 06:30:10;;;;;;;14.85;7.65;;;19.60;99.90;;;;;;4984816;28;20475;-40
2023/06/29 06:32:41;;;;;;;10.20;7.95;;;19.60;99.90;;;;;;4983403;28;20046;-38
2023/06/29 06:35:09;;;;;;;8.57;7.57;;;19.70;99.90;;;;;;4973694;28;20054;-39
2023/06/29 06:37:37;;;;;;;10.82;7.53;;;19.80;99.90;;;;;;4973628;28;20054;-40
2023/06/29 06:40:08;;;;;;;11.02;7.53;;;19.90;99.90;;;;;;4981629;28;20134;-47
2023/06/29 06:42:36;;;;;;;12.00;7.93;;;20.00;99.90;;;;;;4983938;28;20047;-45
2023/06/29 06:45:05;;;;;;;8.88;7.97;;;20.10;99.90;;;;;;4969991;28;20046;-44
2023/06/29 06:47:34;;;;;;;8.98;8.00;;;20.10;99.90;;;;;;4981817;28;20118;-39
2023/06/29 06:50:02;;;;;;;10.63;7.53;;;20.30;99.90;;;;;;4987932;28;20050;-43
2023/06/29 06:52:33;;;;;;;13.13;7.40;;;20.30;99.90;;;;;;5039955;22;20045;-47
2023/06/29 06:55:01;;;;;;;11.93;7.60;;;20.50;99.90;;;;;;5043471;28;20426;-43
2023/06/29 06:57:31;;;;;;;10.55;7.30;;;20.50;99.90;;;;;;5048578;28;20068;-46
2023/06/29 07:00:00;;;;;;;10.60;7.00;;;20.70;99.90;;;;;;5027522;28;20529;-47
2023/06/29 07:02:28;;;;;;;8.63;7.35;;;20.80;99.90;;;;;;5013442;28;20046;-43
2023/06/29 07:04:55;;;;;;;10.70;7.82;;;21.00;99.90;;;;;;5012028;28;20050;-48
2023/06/29 07:07:22;;;;;;;10.57;7.40;;;21.10;99.90;;;;;;5007607;28;20110;-44
2023/06/29 07:09:50;;;;;;;12.75;7.55;;;21.20;99.90;;;;;;5016774;28;20049;-43
2023/06/29 07:12:17;;;;;;;10.55;7.75;;;21.20;99.90;;;;;;5012070;28;20034;-47
2023/06/29 07:14:46;;;;;;;9.10;7.05;;;21.30;99.90;;;;;;5010165;28;20411;-45
2023/06/29 07:17:13;;;;;;;9.80;7.20;;;21.50;99.90;;;;;;5020197;28;20060;-45
2023/06/29 07:19:40;;;;;;;10.00;7.40;;;21.50;99.90;;;;;;5015649;28;20472;-44
2023/06/29 07:22:11;;;;;;;10.10;7.32;;;21.60;99.90;;;;;;5020696;28;20118;-44
2023/06/29 07:24:41;;;;;;;11.88;7.30;;;21.70;99.90;;;;;;5016135;28;20431;-47
2023/06/29 07:27:08;;;;;;;13.55;7.63;;;21.80;99.90;;;;;;5015664;28;20073;-45
2023/06/29 07:29:35;;;;;;;11.52;7.13;;;21.80;99.90;;;;;;5021286;28;20064;-44
2023/06/29 07:32:03;;;;;;;9.90;7.05;;;21.90;99.90;;;;;;5011137;28;20137;-45
2023/06/29 07:34:31;;;;;;;10.63;6.97;;;22.10;99.90;;;;;;5023560;28;20041;-43
2023/06/29 07:36:58;;;;;;;9.18;6.93;;;22.10;99.90;;;;;;5012709;28;20141;-46
2023/06/29 07:39:27;;;;;;;11.93;7.68;;;22.20;99.90;;;;;;5023818;28;20061;-44
2023/06/29 07:41:54;;;;;;;8.48;6.90;;;22.30;99.90;;;;;;5010802;28;20502;-46
2023/06/29 07:44:22;;;;;;;7.85;7.15;;;22.40;99.90;;;;;;5030307;28;20041;-44
2023/06/29 07:46:49;;;;;;;9.10;7.15;;;22.60;99.90;;;;;;5021146;28;20038;-44
2023/06/29 07:49:16;;;;;;;9.43;7.10;;;22.70;99.90;;;;;;5015888;28;20066;-44
2023/06/29 07:51:44;;;;;;;10.50;7.00;;;22.80;99.90;;;;;;5016005;28;20570;-43
2023/06/29 07:54:12;;;;;;;10.05;7.18;;;22.80;99.90;;;;;;5008177;28;20096;-44
2023/06/29 07:56:39;;;;;;;10.30;7.68;;;22.90;99.90;;;;;;5013596;28;20049;-44
2023/06/29 07:59:09;;;;;;;8.15;7.20;;;22.90;99.90;;;;;;5011862;28;20069;-42
2023/06/29 08:01:37;;;;;;;8.88;7.03;;;23.00;99.90;;;;;;5017931;28;20086;-43
2023/06/29 08:04:05;;;;;;;8.90;6.93;;;23.10;99.90;;;;;;5027577;28;20042;-49
2023/06/29 08:06:33;;;;;;;7.53;6.93;;;23.20;99.90;;;;;;5017635;28;20678;-44
2023/06/29 08:09:03;;;;;;;7.90;7.20;;;23.30;99.90;;;;;;5007968;28;20046;-47
2023/06/29 08:11:31;;;;;;;7.40;6.72;;;23.50;99.90;;;;;;5026876;28;20038;-46
2023/06/29 08:13:58;;;;;;;7.38;6.68;;;23.50;99.90;;;;;;5017490;28;20406;-41
2023/06/29 08:16:26;;;;;;;7.38;6.68;;;23.60;99.90;;;;;;5014448;28;20045;-45
2023/06/29 08:18:53;;;;;;;8.50;6.93;;;23.60;99.90;;;;;;5023459;28;20103;-42
2023/06/29 08:21:21;;;;;;;10.35;7.00;;;23.70;99.90;;;;;;5019748;28;20092;-44
2023/06/29 08:23:50;;;;;;;7.07;6.38;;;23.70;99.90;;;;;;5013356;28;20054;-47
2023/06/29 08:26:18;;;;;;;7.85;6.90;;;23.80;99.90;;;;;;5012551;28;20049;-43
2023/06/29 08:28:45;;;;;;;9.05;6.72;;;23.80;99.90;;;;;;5013248;28;20519;-46
2023/06/29 08:31:13;;;;;;;8.85;6.95;;;23.80;99.90;;;;;;5017296;28;20402;-46
2023/06/29 08:33:40;;;;;;;8.43;7.35;;;23.90;99.90;;;;;;5009645;28;20061;-47
2023/06/29 08:36:07;;;;;;;7.72;6.93;;;24.00;99.90;;;;;;5014824;28;20064;-47
2023/06/29 08:38:35;;;;;;;8.20;7.40;;;24.10;99.90;;;;;;5030852;28;20064;-45
2023/06/29 08:41:04;;;;;;;9.98;8.00;;;24.20;99.90;;;;;;5016196;28;20522;-48
2023/06/29 08:43:32;;;;;;;8.93;7.07;;;24.40;99.90;;;;;;5013099;28;20045;-45
2023/06/29 08:46:01;;;;;;;9.48;8.45;;;24.40;99.80;;;;;;5029399;28;20042;-45
2023/06/29 08:48:31;;;;;;;11.90;6.93;;;24.50;99.30;;;;;;5023344;28;20500;-45
2023/06/29 08:51:06;;;;;;;10.25;6.90;;;24.70;98.20;;;;;;5023782;28;20052;-44
2023/06/29 08:53:34;;;;;;;8.10;7.32;;;24.60;97.90;;;;;;5014825;28;20042;-44
2023/06/29 08:56:03;;;;;;;7.78;7.07;;;24.70;97.60;;;;;;5019853;28;20523;-44
2023/06/29 08:58:31;;;;;;;9.65;7.45;;;24.70;97.40;;;;;;5027105;28;20053;-43
2023/06/29 09:00:59;;;;;;;8.60;7.70;;;24.70;97.20;;;;;;5017148;28;20060;-45
2023/06/29 09:03:28;;;;;;;12.93;7.25;;;24.60;97.40;;;;;;5023583;28;20030;-46
2023/06/29 09:05:56;;;;;;;8.57;6.90;;;24.80;97.30;;;;;;5010075;28;20046;-45
2023/06/29 09:08:24;;;;;;;8.90;7.07;;;24.90;96.90;;;;;;5015751;28;20466;-48
2023/06/29 09:10:52;;;;;;;8.43;7.65;;;25.00;96.50;;;;;;5013709;28;20073;-48
2023/06/29 09:13:19;;;;;;;7.63;7.00;;;25.10;96.50;;;;;;5027283;28;20049;-47
2023/06/29 09:15:48;;;;;;;8.00;7.30;;;25.10;96.60;;;;;;5015896;28;20100;-43
2023/06/29 09:18:19;;;;;;;7.75;7.05;;;25.30;96.40;;;;;;5023282;28;20048;-42
2023/06/29 09:20:50;;;;;;;7.47;6.83;;;25.30;96.20;;;;;;5019541;28;20077;-43
2023/06/29 09:23:17;;;;;;;8.03;6.80;;;25.40;95.90;;;;;;5022680;28;20124;-45
2023/06/29 09:25:45;;;;;;;7.35;6.50;;;25.50;95.60;;;;;;5018224;28;20081;-43
2023/06/29 09:28:13;;;;;;;7.78;7.00;;;25.60;95.40;;;;;;5015996;28;20413;-42
2023/06/29 09:30:41;;;;;;;8.70;7.10;;;25.70;94.70;;;;;;5018459;28;20038;-44
2023/06/29 09:33:14;;;;;;;7.60;6.65;;;25.90;94.40;;;;;;5023902;28;20510;-46
2023/06/29 09:35:47;;;;;;;7.43;6.65;;;25.90;94.20;;;;;;5009735;28;20096;-44
2023/06/29 09:38:16;;;;;;;7.00;6.40;;;25.90;93.80;;;;;;5008597;28;20050;-44
2023/06/29 09:40:50;;;;;;;7.32;6.47;;;26.00;93.70;;;;;;5014435;28;20034;-43
2023/06/29 09:43:20;;;;;;;10.95;7.38;;;25.90;93.50;;;;;;5010910;28;20045;-48
2023/06/29 09:45:48;;;;;;;10.20;7.03;;;26.10;93.20;;;;;;5016251;28;20147;-45
2023/06/29 09:48:15;;;;;;;8.55;7.30;;;26.00;93.00;;;;;;5020479;28;20129;-43
2023/06/29 09:50:52;;;;;;;8.60;7.70;;;26.10;92.50;;;;;;5014544;28;20044;-45
2023/06/29 09:53:32;;;;;;;8.38;7.03;;;26.40;92.40;;;;;;5020564;28;20069;-48
2023/06/29 09:56:02;;;;;;;10.43;6.60;;;26.60;91.90;;;;;;5009995;28;20058;-45
2023/06/29 09:58:30;;;;;;;7.78;6.97;;;26.70;91.80;;;;;;5012622;28;20046;-45
2023/06/29 10:01:00;;;;;;;7.68;6.88;;;26.80;92.00;;;;;;5023867;28;20058;-45
2023/06/29 10:03:30;;;;;;;7.10;6.40;;;26.90;91.10;;;;;;5010691;28;20113;-45
2023/06/29 10:06:03;;;;;;;7.78;6.85;;;26.80;91.10;;;;;;5011587;28;20557;-45
2023/06/29 10:08:33;;;;;;;7.25;6.40;;;26.70;90.80;;;;;;5014438;28;20050;-47
2023/06/29 10:11:03;;;;;;;8.93;7.07;;;26.70;90.30;;;;;;5008867;28;20125;-48
2023/06/29 10:13:53;;;;;;;7.67;6.80;;;26.50;91.00;;;;;;5006354;28;20072;-45
2023/06/29 10:16:22;;;;;;;7.30;6.70;;;26.80;91.00;;;;;;5006133;28;20117;-43
2023/06/29 10:19:01;;;;;;;7.45;6.75;;;27.00;88.90;;;;;;5011998;28;20128;-43
2023/06/29 10:21:29;;;;;;;8.50;6.25;;;27.00;88.40;;;;;;5019653;28;20117;-43
2023/06/29 10:23:56;;;;;;;7.68;6.70;;;27.10;88.00;;;;;;5017409;28;20068;-42
2023/06/29 10:26:24;;;;;;;7.43;6.50;;;27.30;87.20;;;;;;5033035;28;20053;-44
2023/06/29 10:28:52;;;;;;;7.20;6.50;;;27.20;86.90;;;;;;5024611;28;20510;-41
2023/06/29 10:31:32;;;;;;;8.68;7.90;;;27.20;87.50;;;;;;5021719;28;20041;-41
2023/06/29 10:34:00;;;;;;;12.18;6.93;;;27.30;86.20;;;;;;5034270;28;20057;-43
2023/06/29 10:36:44;;;;;;;7.07;6.38;;;27.60;85.00;;;;;;5013683;28;20188;-41
2023/06/29 10:39:44;;;;;;;9.75;6.63;;;28.00;84.40;;;;;;5018093;28;20069;-40
2023/06/29 10:42:12;;;;;;;11.13;6.43;;;28.30;83.20;;;;;;5016895;28;20120;-45
2023/06/29 10:44:39;;;;;;;7.35;6.60;;;28.00;82.80;;;;;;5006653;28;20072;-44
2023/06/29 10:47:26;;;;;;;7.72;7.03;;;27.90;83.10;;;;;;5007419;28;20073;-45
2023/06/29 10:50:09;;;;;;;7.50;6.72;;;28.40;83.20;;;;;;5013878;28;20165;-44
2023/06/29 10:52:37;;;;;;;7.35;6.65;;;28.90;80.90;;;;;;5009459;28;20082;-44
2023/06/29 10:55:37;;;;;;;7.30;6.60;;;29.20;79.60;;;;;;5007843;28;20038;-48
2023/06/29 10:58:19;;;;;;;7.68;6.97;;;29.40;78.80;;;;;;5005395;28;20098;-45
2023/06/29 11:00:48;;;;;;;7.28;6.35;;;29.60;77.50;;;;;;5021253;28;20054;-45
2023/06/29 11:03:15;;;;;;;8.05;7.25;;;29.90;76.00;;;;;;5012366;28;20180;-45
2023/06/29 11:05:43;;;;;;;10.35;6.90;;;30.20;75.30;;;;;;5004512;28;20585;-48
2023/06/29 11:08:11;;;;;;;7.78;7.07;;;30.50;74.20;;;;;;5004044;28;20034;-45
2023/06/29 11:10:38;;;;;;;7.72;6.82;;;30.90;73.30;;;;;;5008565;28;20077;-46
2023/06/29 11:13:09;;;;;;;7.00;6.38;;;31.00;71.80;;;;;;5025858;28;20505;-42
2023/06/29 11:15:38;;;;;;;7.10;6.50;;;30.90;71.00;;;;;;5011696;28;20133;-41
2023/06/29 11:18:07;;;;;;;8.77;6.82;;;30.90;70.70;;;;;;5011045;28;20494;-46
2023/06/29 11:20:39;;;;;;;6.78;6.20;;;31.20;70.20;;;;;;5011270;28;20052;-45
2023/06/29 11:23:07;;;;;;;7.93;7.22;;;30.80;70.20;;;;;;5007675;28;20142;-45
2023/06/29 11:25:36;;;;;;;7.45;6.80;;;30.40;71.00;;;;;;5023501;28;20042;-41
2023/06/29 11:28:04;;;;;;;7.10;6.40;;;30.80;70.90;;;;;;5013815;28;20045;-46
2023/06/29 11:30:31;;;;;;;7.03;6.43;;;30.60;69.30;;;;;;5015993;28;20041;-44
2023/06/29 11:33:01;;;;;;;6.80;6.15;;;30.80;68.80;;;;;;5029571;28;20069;-47
2023/06/29 11:35:29;;;;;;;6.88;6.18;;;31.10;68.50;;;;;;5013259;28;20120;-49
2023/06/29 11:38:00;;;;;;;7.95;6.88;;;31.60;67.60;;;;;;5025005;28;20522;-46
2023/06/29 11:40:28;;;;;;;8.05;6.80;;;32.10;66.50;;;;;;5032834;28;20594;-40
2023/06/29 11:42:56;;;;;;;7.47;6.72;;;32.50;65.60;;;;;;5026004;28;20511;-46
2023/06/29 11:45:23;;;;;;;7.40;6.70;;;33.00;64.70;;;;;;5026087;28;20053;-49
2023/06/29 11:47:54;;;;;;;7.47;6.85;;;32.70;62.90;;;;;;5029346;28;20049;-46
2023/06/29 11:50:23;;;;;;;;;;;32.30;64.10;;;;;;5024494;28;20038;-45
2023/06/29 11:52:51;;;;;;;7.25;6.68;;;32.50;63.70;;;;;;5031773;28;19928;-46
2023/06/29 11:55:19;;;;;;;7.82;7.03;;;33.40;63.20;;;;;;5016695;28;20040;-43
2023/06/29 11:57:54;;;;;;;7.25;6.53;;;34.20;62.00;;;;;;5007970;28;20053;-46
2023/06/29 12:00:22;;;;;;;7.03;6.32;;;33.80;60.90;;;;;;5011959;28;20157;-43
2023/06/29 12:02:50;;;;;;;7.43;5.88;;;33.70;60.10;;;;;;5005907;28;20034;-41
2023/06/29 12:05:17;;;;;;;9.68;6.75;;;33.50;59.60;;;;;;5013426;28;20061;-37
2023/06/29 12:07:46;;;;;;;7.00;6.28;;;32.30;60.90;;;;;;5015976;28;20545;-39
2023/06/29 12:10:24;;;;;;;7.07;6.38;;;32.40;61.70;;;;;;5016934;28;20041;-36
2023/06/29 12:12:56;;;;;;;7.15;6.50;;;33.10;60.60;;;;;;5031996;28;20510;-36
2023/06/29 12:15:27;;;;;;;7.47;6.20;;;33.20;59.80;;;;;;5028412;28;20068;-42
2023/06/29 12:18:08;;;;;;;7.00;6.40;;;33.10;59.70;;;;;;5040546;28;20129;-40
2023/06/29 12:20:45;;;;;;;7.25;6.57;;;33.30;59.80;;;;;;5036466;28;20495;-38
2023/06/29 12:23:14;;;;;;;7.43;6.72;;;32.50;60.30;;;;;;5026452;28;20042;-39
2023/06/29 12:25:45;;;;;;;7.40;6.70;;;32.30;60.30;;;;;;5017264;28;20053;-40
2023/06/29 12:28:14;;;;;;;7.05;6.40;;;32.80;60.50;;;;;;5013564;28;20054;-40
2023/06/29 12:30:42;;;;;;;7.43;6.72;;;33.70;59.50;;;;;;5023195;28;20057;-39
2023/06/29 12:33:12;;;;;;;7.68;6.80;;;34.10;58.70;;;;;;5031953;28;20092;-40
2023/06/29 12:35:40;;;;;;;8.05;7.38;;;34.50;58.50;;;;;;5021830;28;20045;-40
2023/06/29 12:38:07;;;;;;;7.57;6.70;;;35.30;57.20;;;;;;5022977;28;20148;-37
2023/06/29 12:40:35;;;;;;;7.00;6.40;;;36.20;55.80;;;;;;5010047;28;20427;-38
2023/06/29 12:43:02;;;;;;;7.82;7.03;;;36.00;55.80;;;;;;5031995;28;20188;-38
2023/06/29 12:45:29;;;;;;;7.70;7.00;;;35.90;55.50;;;;;;5036666;28;20053;-39
2023/06/29 12:47:57;;;;;;;8.15;7.35;;;35.80;55.20;;;;;;5031183;28;20038;-37
2023/06/29 12:50:24;;;;;;;7.85;6.85;;;35.60;55.40;;;;;;5033786;28;20481;-41
2023/06/29 12:52:52;;;;;;;7.10;6.40;;;35.50;55.50;;;;;;5025512;28;20076;-38
2023/06/29 12:55:19;;;;;;;7.80;7.10;;;34.80;55.60;;;;;;5011530;28;20049;-40